Time;durP1;ratioP1;P1;durP2;ratioP2;P2;SDS_P1;SDS_P2;PMS_P1;PMS_P2;Temp;Humidity;BMP_temperature;BMP_pressure;BME280_temperature;BME280_humidity;BME280_pressure;Samples;Min_cycle;Max_cycle;Signal;HPM_P1;HPM_P2
2022/04/17 00:01:43;;;;;;;;;;;13.00;99.90;;;;;;5137783;27;20363;-75
2022/04/17 00:04:10;;;;;;;;;;;13.10;99.90;;;;;;5156897;27;20018;-75
2022/04/17 00:06:37;;;;;;;;;;;13.10;99.90;;;;;;5156280;27;20368;-75
2022/04/17 00:09:02;;;;;;;;;;;13.10;99.90;;;;;;5156474;27;19907;-75
2022/04/17 00:11:28;;;;;;;;;;;13.10;99.90;;;;;;5157186;27;19930;-75
2022/04/17 00:13:55;;;;;;;;;;;13.10;99.90;;;;;;5156112;27;19914;-76
2022/04/17 00:16:21;;;;;;;;;;;13.10;99.90;;;;;;5156505;27;19915;-75
2022/04/17 00:18:46;;;;;;;;;;;13.10;99.90;;;;;;5156120;27;19911;-75
2022/04/17 00:21:12;;;;;;;;;;;13.00;99.90;;;;;;5156282;27;19913;-75
2022/04/17 00:23:38;;;;;;;;;;;13.10;99.90;;;;;;5156289;27;19907;-75
2022/04/17 00:26:04;;;;;;;;;;;13.00;99.90;;;;;;5156366;27;20334;-75
2022/04/17 00:28:30;;;;;;;;;;;13.00;99.90;;;;;;5156417;27;19932;-75
2022/04/17 00:30:55;;;;;;;;;;;13.00;99.90;;;;;;5155855;27;20641;-75
2022/04/17 00:33:21;;;;;;;;;;;13.10;99.90;;;;;;5156283;27;20003;-76
2022/04/17 00:35:46;;;;;;;;;;;13.10;99.90;;;;;;5155564;27;19908;-76
2022/04/17 00:38:12;;;;;;;;;;;13.10;99.90;;;;;;5155956;27;20272;-76
2022/04/17 00:40:37;;;;;;;;;;;13.10;99.90;;;;;;5155518;27;19911;-76
2022/04/17 00:43:38;;;;;;;;;;;13.10;99.90;;;;;;5155915;27;19907;-75
2022/04/17 00:46:04;;;;;;;;;;;13.10;99.90;;;;;;5051688;28;19915;-76
2022/04/17 00:48:29;;;;;;;;;;;13.10;99.90;;;;;;5133813;27;19911;-76
2022/04/17 00:50:56;;;;;;;;;;;13.00;99.90;;;;;;5155417;27;19907;-76
2022/04/17 00:53:23;;;;;;;;;;;13.00;99.90;;;;;;5155716;27;20014;-76
2022/04/17 00:55:49;;;;;;;;;;;13.10;99.90;;;;;;5155412;27;19923;-76
2022/04/17 00:58:15;;;;;;;;;;;13.10;99.90;;;;;;5155860;27;20359;-76
2022/04/17 01:00:41;;;;;;;;;;;13.20;99.90;;;;;;5155090;27;19907;-76
2022/04/17 01:03:07;;;;;;;;;;;13.20;99.90;;;;;;5155651;27;19936;-76
2022/04/17 01:05:32;;;;;;;;;;;13.20;99.90;;;;;;5155651;27;19907;-76
2022/04/17 01:07:58;;;;;;;;;;;13.20;99.90;;;;;;5154602;27;20002;-76
2022/04/17 01:10:24;;;;;;;;;;;13.30;99.90;;;;;;5155733;27;19950;-75
2022/04/17 01:12:52;;;;;;;;;;;13.30;99.90;;;;;;5154791;27;19932;-75
2022/04/17 01:15:18;;;;;;;;;;;13.30;99.90;;;;;;5155535;27;19907;-75
2022/04/17 01:17:44;;;;;;;;;;;13.30;99.90;;;;;;5154690;27;19919;-76
2022/04/17 01:20:10;;;;;;;;;;;13.30;99.90;;;;;;5155181;27;19956;-75
2022/04/17 01:22:35;;;;;;;;;;;13.30;99.90;;;;;;5155450;27;19907;-75
2022/04/17 01:27:45;;;;;;;;;;;13.30;99.90;;;;;;5154545;27;19964;-76
2022/04/17 01:30:11;;;;;;;;;;;13.30;99.90;;;;;;5155305;27;19907;-76
2022/04/17 01:32:37;;;;;;;;;;;13.30;99.90;;;;;;5154973;27;20374;-75
2022/04/17 01:35:02;;;;;;;;;;;13.30;99.90;;;;;;5154512;27;19979;-75
2022/04/17 01:37:28;;;;;;;;;;;13.30;99.90;;;;;;5154932;27;19988;-75
2022/04/17 01:39:53;;;;;;;;;;;13.30;99.90;;;;;;5154632;27;19934;-75
2022/04/17 01:42:19;;;;;;;;;;;13.30;99.90;;;;;;5155155;27;19907;-75
2022/04/17 01:44:44;;;;;;;;;;;13.20;99.90;;;;;;5154232;27;19907;-75
2022/04/17 01:47:10;;;;;;;;;;;13.30;99.90;;;;;;5154924;27;20280;-75
2022/04/17 01:49:36;;;;;;;;;;;13.30;99.90;;;;;;5154472;27;19956;-75
2022/04/17 01:52:02;;;;;;;;;;;13.30;99.90;;;;;;5154286;27;19914;-75
2022/04/17 01:54:28;;;;;;;;;;;13.30;99.90;;;;;;5136014;27;19918;-74
2022/04/17 01:56:54;;;;;;;;;;;13.30;99.90;;;;;;5153890;27;19911;-75
2022/04/17 01:59:20;;;;;;;;;;;13.30;99.90;;;;;;5154645;27;19958;-75
2022/04/17 02:01:46;;;;;;;;;;;13.30;99.90;;;;;;5154205;27;19914;-75
2022/04/17 02:04:12;;;;;;;;;;;13.30;99.90;;;;;;5154517;27;19907;-74
2022/04/17 02:06:41;;;;;;;;;;;13.30;99.90;;;;;;5154471;27;19914;-75
2022/04/17 02:09:08;;;;;;;;;;;13.30;99.90;;;;;;5153987;27;20010;-74
2022/04/17 02:11:33;;;;;;;;;;;13.30;99.90;;;;;;5154391;27;19931;-74
2022/04/17 02:13:59;;;;;;;;;;;13.30;99.90;;;;;;5153761;27;19907;-74
2022/04/17 02:16:25;;;;;;;;;;;13.30;99.90;;;;;;5154628;27;20059;-75
2022/04/17 02:18:52;;;;;;;;;;;13.30;99.90;;;;;;5153689;27;19911;-74
2022/04/17 02:21:18;;;;;;;;;;;13.20;99.90;;;;;;5154163;27;20043;-75
2022/04/17 02:23:44;;;;;;;;;;;13.20;99.90;;;;;;5154435;27;19914;-74
2022/04/17 02:26:10;;;;;;;;;;;13.20;99.90;;;;;;5154410;27;19907;-75
2022/04/17 02:28:37;;;;;;;;;;;13.20;99.90;;;;;;5154167;27;19911;-74
2022/04/17 02:31:03;;;;;;;;;;;13.20;99.90;;;;;;5153637;27;19946;-75
2022/04/17 02:33:29;;;;;;;;;;;13.20;99.90;;;;;;5154478;27;20002;-74
2022/04/17 02:35:54;;;;;;;;;;;13.20;99.90;;;;;;5153657;27;19954;-74
2022/04/17 02:38:20;;;;;;;;;;;13.30;99.90;;;;;;5153922;27;20002;-75
2022/04/17 02:40:46;;;;;;;;;;;13.20;99.90;;;;;;5154045;27;19956;-75
2022/04/17 02:43:11;;;;;;;;;;;13.20;99.90;;;;;;5153991;27;19907;-75
2022/04/17 02:45:37;;;;;;;;;;;13.20;99.90;;;;;;5153933;27;19907;-75
2022/04/17 02:48:03;;;;;;;;;;;13.00;99.90;;;;;;5153475;27;20008;-74
2022/04/17 02:50:28;;;;;;;;;;;13.00;99.90;;;;;;5154376;27;19907;-75
2022/04/17 02:52:55;;;;;;;;;;;12.90;99.90;;;;;;5153722;27;19928;-75
2022/04/17 02:55:21;;;;;;;;;;;12.80;99.90;;;;;;5153857;27;19926;-75
2022/04/17 02:57:46;;;;;;;;;;;12.80;99.90;;;;;;5153726;27;19911;-74
2022/04/17 03:00:12;;;;;;;;;;;12.80;99.90;;;;;;5153975;27;19918;-74
2022/04/17 03:05:38;;;;;;;;;;;12.90;99.90;;;;;;5154283;27;19928;-75
2022/04/17 03:08:10;;;;;;;;;;;12.80;99.90;;;;;;5153648;27;19907;-75
2022/04/17 03:10:37;;;;;;;;;;;12.70;99.90;;;;;;5154235;27;19918;-75
2022/04/17 03:13:04;;;;;;;;;;;12.60;99.90;;;;;;5153598;27;19914;-75
2022/04/17 03:15:30;;;;;;;;;;;12.60;99.90;;;;;;5135341;27;20271;-75
2022/04/17 03:17:56;;;;;;;;;;;12.60;99.90;;;;;;5153375;27;19918;-75
2022/04/17 03:20:22;;;;;;;;;;;12.60;99.90;;;;;;5153968;27;20002;-75
2022/04/17 03:22:48;;;;;;;;;;;12.50;99.90;;;;;;5153756;27;19907;-75
2022/04/17 03:25:14;;;;;;;;;;;12.40;99.90;;;;;;5153891;27;19975;-75
2022/04/17 03:27:43;;;;;;;;;;;12.40;99.90;;;;;;5154060;27;20359;-75
2022/04/17 03:30:09;;;;;;;;;;;12.50;99.90;;;;;;5153320;27;19907;-75
2022/04/17 03:32:35;;;;;;;;;;;12.40;99.90;;;;;;5155985;27;20015;-75
2022/04/17 03:35:01;;;;;;;;;;;12.40;99.90;;;;;;5156822;27;20371;-75
2022/04/17 03:37:26;;;;;;;;;;;12.50;99.90;;;;;;5157474;27;19960;-75
2022/04/17 03:39:53;;;;;;;;;;;12.50;99.90;;;;;;5157021;27;19911;-75
2022/04/17 03:42:21;;;;;;;;;;;12.40;99.90;;;;;;5157328;27;19953;-75
2022/04/17 03:44:47;;;;;;;;;;;12.40;99.90;;;;;;5157399;27;19950;-74
2022/04/17 03:47:13;;;;;;;;;;;12.40;99.90;;;;;;5156734;27;19914;-74
2022/04/17 03:49:38;;;;;;;;;;;12.30;99.90;;;;;;5157042;27;19959;-74
2022/04/17 03:52:04;;;;;;;;;;;12.20;99.90;;;;;;5156280;27;20001;-74
2022/04/17 03:54:30;;;;;;;;;;;12.20;99.90;;;;;;5157108;27;20384;-74
2022/04/17 03:56:56;;;;;;;;;;;12.20;99.90;;;;;;5157162;27;19919;-75
2022/04/17 03:59:21;;;;;;;;;;;12.20;99.90;;;;;;5156608;27;20360;-75
2022/04/17 04:01:47;;;;;;;;;;;12.20;99.90;;;;;;5157633;27;20002;-75
2022/04/17 04:04:14;;;;;;;;;;;12.20;99.90;;;;;;5156311;27;19921;-75
2022/04/17 04:06:40;;;;;;;;;;;12.10;99.90;;;;;;5156672;27;20405;-75
2022/04/17 04:09:06;;;;;;;;;;;12.00;99.90;;;;;;5156241;27;19911;-75
2022/04/17 04:11:32;;;;;;;;;;;12.10;99.90;;;;;;5156984;27;19913;-75
2022/04/17 04:13:57;;;;;;;;;;;12.10;99.90;;;;;;5156355;27;19907;-75
2022/04/17 04:16:23;;;;;;;;;;;12.10;99.90;;;;;;5156374;27;19919;-75
2022/04/17 04:18:48;;;;;;;;;;;12.10;99.90;;;;;;5156671;27;20398;-75
2022/04/17 04:21:14;;;;;;;;;;;12.00;99.90;;;;;;5156550;27;19918;-75
2022/04/17 04:23:41;;;;;;;;;;;12.00;99.90;;;;;;5157106;27;19907;-75
2022/04/17 04:26:07;;;;;;;;;;;12.00;99.90;;;;;;5155927;27;20385;-75
2022/04/17 04:28:33;;;;;;;;;;;12.00;99.90;;;;;;5156669;27;19950;-75
2022/04/17 04:31:01;;;;;;;;;;;12.00;99.90;;;;;;5156024;27;20264;-75
2022/04/17 04:33:27;;;;;;;;;;;12.00;99.90;;;;;;5156393;27;19914;-75
2022/04/17 04:35:52;;;;;;;;;;;12.10;99.90;;;;;;5155940;27;19907;-75
2022/04/17 04:38:18;;;;;;;;;;;12.00;99.90;;;;;;5156022;27;19915;-75
2022/04/17 04:40:44;;;;;;;;;;;12.10;99.90;;;;;;5156377;27;19942;-75
2022/04/17 04:43:09;;;;;;;;;;;12.10;99.90;;;;;;5154811;27;19994;-75
2022/04/17 04:49:29;;;;;;;;;;;12.20;99.90;;;;;;5155525;27;19915;-75
2022/04/17 04:51:04;;;;;;;;;;;12.20;99.90;;;;;;5154758;27;20014;-75
2022/04/17 04:53:30;;;;;;;;;;;12.20;99.90;;;;;;5155647;27;19958;-75
2022/04/17 04:55:55;;;;;;;;;;;12.20;99.90;;;;;;5154917;27;20303;-75
2022/04/17 04:58:21;;;;;;;;;;;12.20;99.90;;;;;;5155626;27;20331;-75
2022/04/17 05:00:46;;;;;;;;;;;12.30;99.90;;;;;;5156329;27;19911;-75
2022/04/17 05:03:12;;;;;;;;;;;12.20;99.90;;;;;;5155333;27;19907;-75
2022/04/17 05:05:38;;;;;;;;;;;12.30;99.90;;;;;;5155911;27;19942;-75
2022/04/17 05:08:04;;;;;;;;;;;12.30;99.90;;;;;;5155135;27;19907;-75
2022/04/17 05:10:30;;;;;;;;;;;12.30;99.90;;;;;;5155611;27;19907;-75
2022/04/17 05:12:55;;;;;;;;;;;12.30;99.90;;;;;;5155552;27;19913;-75
2022/04/17 05:15:22;;;;;;;;;;;12.30;99.90;;;;;;5155375;27;20294;-75
2022/04/17 05:17:48;;;;;;;;;;;12.20;99.90;;;;;;5155259;27;19911;-75
2022/04/17 05:20:14;;;;;;;;;;;12.20;99.90;;;;;;5154685;27;19934;-75
2022/04/17 05:22:40;;;;;;;;;;;12.20;99.90;;;;;;5155813;27;20267;-75
2022/04/17 05:25:06;;;;;;;;;;;12.20;99.90;;;;;;5154652;27;19908;-75
2022/04/17 05:27:31;;;;;;;;;;;12.30;99.90;;;;;;5155426;27;20317;-75
2022/04/17 05:29:57;;;;;;;;;;;12.20;99.90;;;;;;5155467;27;19914;-75
2022/04/17 05:32:22;;;;;;;;;;;12.20;99.90;;;;;;5155078;27;20267;-75
2022/04/17 05:34:48;;;;;;;;;;;12.20;99.90;;;;;;5155266;27;20279;-75
2022/04/17 05:37:14;;;;;;;;;;;12.20;99.90;;;;;;5154106;27;19963;-75
2022/04/17 05:39:39;;;;;;;;;;;12.20;99.90;;;;;;5155003;27;20381;-75
2022/04/17 05:42:05;;;;;;;;;;;12.20;99.90;;;;;;5154968;27;19949;-75
2022/04/17 05:44:30;;;;;;;;;;;12.10;99.90;;;;;;5155032;27;19911;-76
2022/04/17 05:46:56;;;;;;;;;;;12.10;99.90;;;;;;5149687;27;19911;-76
2022/04/17 05:49:22;;;;;;;;;;;12.20;99.90;;;;;;5133248;27;19947;-75
2022/04/17 05:51:47;;;;;;;;;;;12.20;99.90;;;;;;5134308;27;19907;-75
2022/04/17 05:54:13;;;;;;;;;;;12.10;99.90;;;;;;5128879;27;19920;-75
2022/04/17 05:56:39;;;;;;;;;;;12.10;99.90;;;;;;5113467;28;20395;-75
2022/04/17 05:59:05;;;;;;;;;;;12.10;99.90;;;;;;5112728;28;19976;-75
2022/04/17 06:01:30;;;;;;;;;;;12.10;99.90;;;;;;5113539;28;19912;-76
2022/04/17 06:03:56;;;;;;;;;;;12.10;99.90;;;;;;5113579;28;19911;-76
2022/04/17 06:06:21;;;;;;;;;;;12.10;99.90;;;;;;5112777;28;19919;-74
2022/04/17 06:08:47;;;;;;;;;;;12.10;99.90;;;;;;5113203;28;19908;-74
2022/04/17 06:11:13;;;;;;;;;;;12.10;99.90;;;;;;5112939;28;19908;-74
2022/04/17 06:13:38;;;;;;;;;;;12.10;99.90;;;;;;5113431;28;19908;-74
2022/04/17 06:16:04;;;;;;;;;;;12.10;99.90;;;;;;5112575;28;19915;-75
2022/04/17 06:18:30;;;;;;;;;;;12.10;99.90;;;;;;5113250;28;20006;-74
2022/04/17 06:20:56;;;;;;;;;;;12.10;99.90;;;;;;5113177;28;19908;-75
2022/04/17 06:23:21;;;;;;;;;;;12.10;99.90;;;;;;5112437;28;19943;-74
2022/04/17 06:25:47;;;;;;;;;;;12.10;99.90;;;;;;5113116;28;19933;-74
2022/04/17 06:28:12;;;;;;;;;;;12.00;99.90;;;;;;5112478;28;19914;-74
2022/04/17 06:30:38;;;;;;;;;;;12.00;99.90;;;;;;5095319;28;19907;-74
2022/04/17 06:33:03;;;;;;;;;;;12.00;99.90;;;;;;5094429;28;20246;-75
2022/04/17 06:35:29;;;;;;;;;;;12.00;99.90;;;;;;5094907;28;19908;-74
2022/04/17 06:37:56;;;;;;;;;;;12.00;99.90;;;;;;5112934;28;19943;-74
2022/04/17 06:40:32;;;;;;;;;;;12.10;99.90;;;;;;5112363;28;19912;-74
2022/04/17 06:42:58;;;;;;;;;;;12.00;99.90;;;;;;5113125;28;19908;-74
2022/04/17 06:45:27;;;;;;;;;;;12.10;99.90;;;;;;5112565;28;19954;-74
2022/04/17 06:47:54;;;;;;;;;;;12.00;99.90;;;;;;5112910;28;19931;-74
2022/04/17 06:50:20;;;;;;;;;;;11.90;99.90;;;;;;5111821;28;19908;-75
2022/04/17 06:52:46;;;;;;;;;;;12.00;99.90;;;;;;5112952;28;19911;-75
2022/04/17 06:55:13;;;;;;;;;;;12.00;99.90;;;;;;5112299;28;20257;-75
2022/04/17 06:57:44;;;;;;;;;;;12.10;99.90;;;;;;5112745;28;20026;-75
2022/04/17 07:00:11;;;;;;;;;;;12.10;99.90;;;;;;5112323;28;19915;-75
2022/04/17 07:02:37;;;;;;;;;;;12.10;99.90;;;;;;5112585;28;20368;-75
2022/04/17 07:05:02;;;;;;;;;;;12.10;99.90;;;;;;5112873;28;19914;-75
2022/04/17 07:07:28;;;;;;;;;;;12.10;99.90;;;;;;5116663;28;20290;-75
2022/04/17 07:09:54;;;;;;;;;;;12.20;99.90;;;;;;5116517;28;19999;-75
2022/04/17 07:12:20;;;;;;;;;;;12.20;99.90;;;;;;5116106;28;19911;-75
2022/04/17 07:14:47;;;;;;;;;;;12.20;99.90;;;;;;5116657;28;19986;-75
2022/04/17 07:17:13;;;;;;;;;;;12.20;99.90;;;;;;5115904;28;19918;-75
2022/04/17 07:19:38;;;;;;;;;;;12.20;99.90;;;;;;5116372;28;19912;-75
2022/04/17 07:22:04;;;;;;;;;;;12.20;99.90;;;;;;5116277;28;20332;-75
2022/04/17 07:24:29;;;;;;;;;;;12.30;99.90;;;;;;5115917;28;19918;-75
2022/04/17 07:26:56;;;;;;;;;;;12.30;99.90;;;;;;5116489;28;19960;-75
2022/04/17 07:29:22;;;;;;;;;;;12.40;99.90;;;;;;5097586;28;19960;-75
2022/04/17 07:31:49;;;;;;;;;;;12.30;99.90;;;;;;5115920;28;19915;-75
2022/04/17 07:34:15;;;;;;;;;;;12.30;99.90;;;;;;5115585;28;19915;-75
2022/04/17 07:36:40;;;;;;;;;;;12.30;99.90;;;;;;5116215;28;19912;-75
2022/04/17 07:39:06;;;;;;;;;;;12.30;99.90;;;;;;5115722;28;19919;-75
2022/04/17 07:41:31;;;;;;;;;;;12.30;99.90;;;;;;5116301;28;19915;-75
2022/04/17 07:43:57;;;;;;;;;;;12.40;99.90;;;;;;5115952;28;19947;-75
2022/04/17 07:46:23;;;;;;;;;;;12.40;99.90;;;;;;5115500;28;20386;-75
2022/04/17 07:48:48;;;;;;;;;;;12.50;99.90;;;;;;5115842;28;19914;-75
2022/04/17 07:51:14;;;;;;;;;;;12.50;99.90;;;;;;5115058;28;19908;-76
2022/04/17 07:53:39;;;;;;;;;;;12.60;99.90;;;;;;5116103;28;19987;-75
2022/04/17 07:56:05;;;;;;;;;;;12.60;99.90;;;;;;5116102;27;19920;-75
2022/04/17 07:58:34;;;;;;;;;;;12.60;99.90;;;;;;5115313;28;19959;-75
2022/04/17 08:01:10;;;;;;;;;;;12.60;99.90;;;;;;5115864;28;19934;-75
2022/04/17 08:03:45;;;;;;;;;;;12.70;99.90;;;;;;5115684;28;19934;-75
2022/04/17 08:06:15;;;;;;;;;;;12.70;99.90;;;;;;5115135;28;19969;-75
2022/04/17 08:08:40;;;;;;;;;;;12.70;99.90;;;;;;5115613;28;19907;-74
2022/04/17 08:11:07;;;;;;;;;;;12.70;99.90;;;;;;5115426;28;20010;-75
2022/04/17 08:13:33;;;;;;;;;;;12.80;99.90;;;;;;5113831;28;19908;-75
2022/04/17 08:15:59;;;;;;;;;;;12.70;99.90;;;;;;5096141;28;19915;-76
2022/04/17 08:18:24;;;;;;;;;;;12.80;99.90;;;;;;5095797;28;20000;-75
2022/04/17 08:20:50;;;;;;;;;;;12.80;99.90;;;;;;5115216;28;20049;-76
2022/04/17 08:23:16;;;;;;;;;;;12.80;99.90;;;;;;5114497;28;19912;-76
2022/04/17 08:25:42;;;;;;;;;;;12.80;99.90;;;;;;5115021;28;19931;-76
2022/04/17 08:28:08;;;;;;;;;;;12.90;99.90;;;;;;5114935;28;20349;-76
2022/04/17 08:30:34;;;;;;;;;;;12.90;99.90;;;;;;5114583;28;19915;-76
2022/04/17 08:33:01;;;;;;;;;;;13.00;99.90;;;;;;5115005;28;19908;-76
2022/04/17 08:35:27;;;;;;;;;;;13.00;99.90;;;;;;5114198;28;19919;-76
2022/04/17 08:37:54;;;;;;;;;;;13.10;99.90;;;;;;5096805;28;19915;-77
2022/04/17 08:40:19;;;;;;;;;;;13.10;99.90;;;;;;5114496;28;19916;-76
2022/04/17 08:42:45;;;;;;;;;;;13.20;99.90;;;;;;5115024;28;20262;-76
2022/04/17 08:45:11;;;;;;;;;;;13.20;99.90;;;;;;5114644;28;20241;-77
2022/04/17 08:47:38;;;;;;;;;;;13.20;99.90;;;;;;5114813;28;20002;-76
2022/04/17 08:50:08;;;;;;;;;;;13.20;99.90;;;;;;5114628;28;19908;-76
2022/04/17 08:52:34;;;;;;;;;;;13.20;99.90;;;;;;5114036;28;19980;-77
2022/04/17 08:55:00;;;;;;;;;;;13.30;99.90;;;;;;5124311;27;20339;-76
2022/04/17 08:57:26;;;;;;;;;;;13.30;99.90;;;;;;5134694;27;20395;-76
2022/04/17 08:59:51;;;;;;;;;;;13.30;99.90;;;;;;5135113;27;19911;-76
2022/04/17 09:02:18;;;;;;;;;;;13.30;99.90;;;;;;5134444;27;19915;-76
2022/04/17 09:04:44;;;;;;;;;;;13.30;99.90;;;;;;5134472;27;19939;-77
2022/04/17 09:07:10;;;;;;;;;;;13.30;99.90;;;;;;5134997;27;19999;-76
2022/04/17 09:09:40;;;;;;;;;;;13.30;99.90;;;;;;5134383;27;19918;-76
2022/04/17 09:12:06;;;;;;;;;;;13.30;99.90;;;;;;5134692;27;19907;-76
2022/04/17 09:14:36;;;;;;;;;;;13.40;99.90;;;;;;5135111;27;19918;-76
2022/04/17 09:17:07;;;;;;;;;;;13.40;99.90;;;;;;5134318;27;19911;-76
2022/04/17 09:19:33;;;;;;;;;;;13.50;99.90;;;;;;5134157;27;19908;-76
2022/04/17 09:22:01;;;;;;;;;;;13.50;99.90;;;;;;5134526;27;20325;-76
2022/04/17 09:24:26;;;;;;;;;;;13.60;99.90;;;;;;5133449;27;20336;-76
2022/04/17 09:26:52;;;;;;;;;;;13.70;99.90;;;;;;5134501;27;19958;-77
2022/04/17 09:29:19;;;;;;;;;;;13.70;99.90;;;;;;5133845;27;20344;-76
2022/04/17 09:31:45;;;;;;;;;;;13.80;99.90;;;;;;5134219;27;20368;-77
2022/04/17 09:34:10;;;;;;;;;;;13.80;99.90;;;;;;5116106;27;20352;-76
2022/04/17 09:36:37;;;;;;;;;;;13.90;99.90;;;;;;5133902;27;19915;-77
2022/04/17 09:39:16;;;;;;;;;;;14.00;99.90;;;;;;5134341;27;19911;-76
2022/04/17 09:41:51;;;;;;;;;;;14.00;99.90;;;;;;5134337;27;19908;-77
2022/04/17 09:44:36;;;;;;;;;;;14.10;99.90;;;;;;5133458;27;20372;-77
2022/04/17 09:47:03;;;;;;;;;;;14.10;99.90;;;;;;5134233;27;20348;-76
2022/04/17 09:49:29;;;;;;;;;;;14.20;99.90;;;;;;5133638;27;19976;-77
2022/04/17 09:52:07;;;;;;;;;;;14.20;99.90;;;;;;5134056;27;20360;-77
2022/04/17 09:54:32;;;;;;;;;;;14.20;99.90;;;;;;5133139;27;19982;-77
2022/04/17 09:56:58;;;;;;;;;;;14.30;99.90;;;;;;5133962;27;20394;-77
2022/04/17 09:59:27;;;;;;;;;;;14.20;99.90;;;;;;5132822;27;20470;-77
2022/04/17 10:01:53;;;;;;;;;;;14.30;99.90;;;;;;5133972;27;19956;-77
2022/04/17 10:04:20;;;;;;;;;;;14.30;99.90;;;;;;5133463;27;19915;-76
2022/04/17 10:06:49;;;;;;;;;;;14.40;99.90;;;;;;5133931;27;19953;-77
2022/04/17 10:09:15;;;;;;;;;;;14.40;99.90;;;;;;5133914;27;19914;-77
2022/04/17 10:11:40;;;;;;;;;;;14.40;99.90;;;;;;5133810;27;19908;-77
2022/04/17 10:14:06;;;;;;;;;;;14.50;99.90;;;;;;5133835;27;19956;-77
2022/04/17 10:16:33;;;;;;;;;;;14.40;99.90;;;;;;5133170;27;19964;-77
2022/04/17 10:19:14;;;;;;;;;;;14.40;99.90;;;;;;5133529;28;19919;-77
2022/04/17 10:21:40;;;;;;;;;;;14.50;99.90;;;;;;5133173;28;19915;-77
2022/04/17 10:24:06;;;;;;;;;;;14.50;99.90;;;;;;5133859;28;19998;-77
2022/04/17 10:26:32;;;;;;;;;;;14.50;99.90;;;;;;5133168;28;19908;-77
2022/04/17 10:28:59;;;;;;;;;;;14.30;99.90;;;;;;5133637;28;19907;-77
2022/04/17 10:31:30;;;;;;;;;;;14.30;99.90;;;;;;5133083;28;19914;-76
2022/04/17 10:34:07;;;;;;;;;;;14.20;99.90;;;;;;5133703;28;19990;-77
2022/04/17 10:36:35;;;;;;;;;;;14.20;99.90;;;;;;5132896;28;19912;-77
2022/04/17 10:39:12;;;;;;;;;;;14.10;99.90;;;;;;5133425;28;20015;-77
2022/04/17 10:41:39;;;;;;;;;;;14.00;99.90;;;;;;5135418;27;20485;-77
2022/04/17 10:44:05;;;;;;;;;;;14.00;99.90;;;;;;5137742;27;19955;-77
2022/04/17 10:46:43;;;;;;;;;;;13.90;99.90;;;;;;5118766;27;19912;-77
2022/04/17 10:49:09;;;;;;;;;;;13.90;99.90;;;;;;5119104;27;20029;-77
2022/04/17 10:51:35;;;;;;;;;;;13.80;99.90;;;;;;5136955;27;19943;-77
2022/04/17 10:54:05;;;;;;;;;;;13.70;99.90;;;;;;5136903;27;19937;-77
2022/04/17 10:56:33;;;;;;;;;;;13.70;99.90;;;;;;5136832;27;19926;-77
2022/04/17 10:59:00;;;;;;;;;;;13.70;99.90;;;;;;5137549;27;19964;-77
2022/04/17 11:01:41;;;;;;;;;;;13.80;99.90;;;;;;5136878;27;20018;-77
2022/04/17 11:04:26;;;;;;;;;;;13.70;99.90;;;;;;5137403;27;19955;-77
2022/04/17 11:07:12;;;;;;;;;;;13.70;99.90;;;;;;5137017;27;19907;-77
2022/04/17 11:09:40;;;;;;;;;;;13.70;99.90;;;;;;5103734;27;20006;-77
2022/04/17 11:12:06;;;;;;;;;;;13.60;99.90;;;;;;5137189;27;19961;-77
2022/04/17 11:14:32;;;;;;;;;;;13.60;99.90;;;;;;5136201;27;19907;-77
2022/04/17 11:17:07;;;;;;;;;;;13.50;99.90;;;;;;5136918;27;19911;-77
2022/04/17 11:19:34;;;;;;;;;;;13.50;99.90;;;;;;5136636;27;19915;-77
2022/04/17 11:22:02;;;;;;;;;;;13.50;99.90;;;;;;5136763;27;19915;-75
2022/04/17 11:24:29;;;;;;;;;;;13.50;99.90;;;;;;5136055;27;19998;-77
2022/04/17 11:26:54;;;;;;;;;;;13.50;99.90;;;;;;5136926;27;19915;-77
2022/04/17 11:29:39;;;;;;;;;;;13.40;99.90;;;;;;5136743;27;20283;-77
2022/04/17 11:32:17;;;;;;;;;;;13.50;99.90;;;;;;5136852;27;19942;-76
2022/04/17 11:34:44;;;;;;;;;;;13.50;99.90;;;;;;5136694;27;19919;-77
2022/04/17 11:37:09;;;;;;;;;;;13.40;99.90;;;;;;5136055;27;19970;-77
2022/04/17 11:39:38;;;;;;;;;;;13.30;99.90;;;;;;5135402;27;20360;-77
2022/04/17 11:42:05;;;;;;;;;;;13.30;99.90;;;;;;5135970;27;20364;-77
2022/04/17 11:44:31;;;;;;;;;;;13.20;99.90;;;;;;5135348;27;19998;-77
2022/04/17 11:46:57;;;;;;;;;;;13.30;99.90;;;;;;5135751;27;20275;-77
2022/04/17 11:49:24;;;;;;;;;;;13.30;99.90;;;;;;5135348;27;20002;-77
2022/04/17 11:51:49;;;;;;;;;;;13.30;99.90;;;;;;5135231;27;19907;-77
2022/04/17 11:54:30;;;;;;;;;;;13.20;99.90;;;;;;5134571;27;19958;-77
2022/04/17 11:56:56;;;;;;;;;;;13.20;99.90;;;;;;5135327;27;19959;-75
2022/04/17 11:59:23;;;;;;;;;;;13.30;99.90;;;;;;5135388;27;19918;-75
2022/04/17 12:02:08;;;;;;;;;;;13.30;99.90;;;;;;5135228;27;19908;-75
2022/04/17 12:04:33;;;;;;;;;;;13.30;99.90;;;;;;5134911;27;20002;-76
2022/04/17 12:06:59;;;;;;;;;;;13.40;99.90;;;;;;5135212;27;19993;-76
2022/04/17 12:09:24;;;;;;;;;;;13.40;99.90;;;;;;5134769;27;19961;-76
2022/04/17 12:11:50;;;;;;;;;;;13.40;99.90;;;;;;5135366;27;19908;-76
2022/04/17 12:14:29;;;;;;;;;;;13.40;99.90;;;;;;5134944;27;19907;-75
2022/04/17 12:16:54;;;;;;;;;;;13.40;99.90;;;;;;5134440;27;20291;-75
2022/04/17 12:19:20;;;;;;;;;;;13.40;99.90;;;;;;5134862;27;19911;-76
2022/04/17 12:21:46;;;;;;;;;;;13.40;99.90;;;;;;5116443;27;19998;-77
2022/04/17 12:24:12;;;;;;;;;;;13.40;99.90;;;;;;5134936;27;19911;-75
2022/04/17 12:26:37;;;;;;;;;;;13.40;99.90;;;;;;5134296;27;19958;-75
2022/04/17 12:29:06;;;;;;;;;;;13.40;99.90;;;;;;5135043;27;19911;-75
2022/04/17 12:31:33;;;;;;;;;;;13.50;99.90;;;;;;5115653;27;19934;-75
2022/04/17 12:34:15;;;;;;;;;;;13.40;99.90;;;;;;5134690;27;19907;-75
2022/04/17 12:36:42;;;;;;;;;;;13.40;99.90;;;;;;5134226;27;19922;-75
2022/04/17 12:39:08;;;;;;;;;;;13.40;99.90;;;;;;5134634;27;19911;-76
2022/04/17 12:41:46;;;;;;;;;;;13.30;99.90;;;;;;5133792;27;19908;-76
2022/04/17 12:44:11;;;;;;;;;;;13.40;99.90;;;;;;5134394;27;20375;-76
2022/04/17 12:46:44;;;;;;;;;;;13.40;99.90;;;;;;5133402;27;19907;-76
2022/04/17 12:49:10;;;;;;;;;;;13.40;99.90;;;;;;5134904;27;19907;-76
2022/04/17 12:51:37;;;;;;;;;;;13.40;99.90;;;;;;5133937;27;19908;-76
2022/04/17 12:54:03;;;;;;;;;;;13.40;99.90;;;;;;5134273;27;19907;-76
2022/04/17 12:56:28;;;;;;;;;;;13.30;99.90;;;;;;5133454;27;19958;-76
2022/04/17 12:58:58;;;;;;;;;;;13.30;99.90;;;;;;5115654;27;19955;-78
2022/04/17 13:01:24;;;;;;;;;;;13.30;99.90;;;;;;5134118;27;19943;-77
2022/04/17 13:03:50;;;;;;;;;;;13.30;99.90;;;;;;5134259;27;20051;-78
2022/04/17 13:06:19;;;;;;;;;;;13.30;99.90;;;;;;5134440;27;19908;-80
2022/04/17 13:09:04;;;;;;;;;;;13.20;99.90;;;;;;5115055;27;19945;-79
2022/04/17 13:11:33;;;;;;;;;;;13.20;99.90;;;;;;5133977;27;20006;-81
2022/04/17 13:14:03;;;;;;;;;;;13.30;99.90;;;;;;5134146;27;19907;-81
2022/04/17 13:16:29;;;;;;;;;;;13.20;99.90;;;;;;5133470;27;19907;-80
2022/04/17 13:18:55;;;;;;;;;;;13.20;99.90;;;;;;5115613;27;19907;-83
2022/04/17 13:21:20;;;;;;;;;;;13.20;99.90;;;;;;5134101;27;20413;-84
2022/04/17 13:23:46;;;;;;;;;;;13.20;99.90;;;;;;5133546;27;19995;-83
2022/04/17 13:26:12;;;;;;;;;;;13.30;99.90;;;;;;5115465;27;20394;-80
2022/04/17 13:28:39;;;;;;;;;;;13.30;99.90;;;;;;5132849;27;19907;-80
2022/04/17 13:31:05;;;;;;;;;;;13.40;99.90;;;;;;5134209;27;19950;-78
2022/04/17 13:33:31;;;;;;;;;;;13.40;99.90;;;;;;5133148;27;20371;-77
2022/04/17 13:35:57;;;;;;;;;;;13.50;99.90;;;;;;5133451;27;20006;-77
2022/04/17 13:38:22;;;;;;;;;;;13.50;99.90;;;;;;5133156;27;19967;-76
2022/04/17 13:40:48;;;;;;;;;;;13.60;99.90;;;;;;5133227;27;19954;-76
2022/04/17 13:43:14;;;;;;;;;;;13.60;99.90;;;;;;5133519;27;19915;-76
2022/04/17 13:45:39;;;;;;;;;;;13.60;99.90;;;;;;5133078;27;19907;-76
2022/04/17 13:48:06;;;;;;;;;;;13.70;99.90;;;;;;5133550;27;19986;-76
2022/04/17 13:50:34;;;;;;;;;;;13.70;99.90;;;;;;5132881;27;20268;-76
2022/04/17 13:53:00;;;;;;;;;;;13.60;99.90;;;;;;5132734;27;19907;-77
2022/04/17 13:55:28;;;;;;;;;;;13.70;99.90;;;;;;5132649;27;19965;-77
2022/04/17 13:57:53;;;;;;;;;;;13.70;99.90;;;;;;5132871;27;19970;-77
2022/04/17 14:00:19;;;;;;;;;;;13.50;99.90;;;;;;5133279;27;19916;-77
2022/04/17 14:02:45;;;;;;;;;;;13.60;99.90;;;;;;5132645;27;19903;-81
2022/04/17 14:05:10;;;;;;;;;;;13.60;99.90;;;;;;5133053;27;19907;-81
2022/04/17 14:07:36;;;;;;;;;;;13.60;99.90;;;;;;5132140;27;19975;-81
2022/04/17 14:10:02;;;;;;;;;;;13.70;99.90;;;;;;5153724;27;19950;-81
2022/04/17 14:12:28;;;;;;;;;;;13.60;99.90;;;;;;5153492;27;20001;-78
2022/04/17 14:14:57;;;;;;;;;;;13.60;99.90;;;;;;5153593;27;19907;-76
2022/04/17 14:17:24;;;;;;;;;;;13.70;99.90;;;;;;5153456;27;20340;-76
2022/04/17 14:19:50;;;;;;;;;;;13.60;99.90;;;;;;5153891;27;19914;-77
2022/04/17 14:22:17;;;;;;;;;;;13.60;99.90;;;;;;5153910;27;19907;-77
2022/04/17 14:24:42;;;;;;;;;;;13.50;99.90;;;;;;5153412;27;19907;-78